aviador You're here:

KJAN Decoded Metar

JACKSON in MS, USA
Report Time2018-01-21 05:54:00
UTC Time2018-01-21 06:43:03
Flight Rules vfr VFR
Wind150° at 08 kt
W.Decomp.*RWY 16: 7.9 kt HW 1.3 kt LCW
W.Rank150° ranks 2
Current wind is above 150° avg. (6.9)
Visibility9999 m
Phenomena:N/A
Clouds:N/A
Expected CloudBase > 1,600 ft AGL from Temp-Dew spread
CeilingNone
Temp11°C (ISA -3)
Dew Point07°C (77% RH)
AAT7.4°C
QNH1021 hPa
Density Alt-240 ft
Elevation299 ft
Report Wrong Elevation
Raw Report
KJAN 210554Z AUTO 15008KT 10SM CLR 11/07 A3016 RMK AO2 SLP212
60000 T01060072 10161 20100 402000022 58003=

Extra information for KJAN:More info

Metar Taf Metar & Taf Last 4 Metars F.Rules Stats Wind Profile Meteogram Temp Stats Airport Information Weather charts Add Link Nearby VenuesMetar ALERT Operation Metar Decoded Social comments

AIRNAV info for KJAN